createdAt,value
2022-12-26T08:42:20.993Z,788.00
2022-12-26T08:43:34.859Z,788.00
2022-12-26T08:44:27.136Z,760.00
2022-12-26T08:45:21.925Z,768.00
2022-12-26T08:46:20.989Z,848.00
2022-12-26T08:47:20.908Z,944.00
2022-12-26T08:48:20.918Z,1060.00
2022-12-26T08:49:20.886Z,1196.00
2022-12-26T08:50:20.853Z,1288.00
2022-12-26T08:51:20.847Z,1424.00
2022-12-26T08:52:20.842Z,1336.00
2022-12-26T08:53:20.863Z,1284.00
2022-12-26T08:54:20.818Z,1328.00
2022-12-26T08:55:20.844Z,1392.00
2022-12-26T08:56:20.836Z,1460.00
2022-12-26T08:57:20.782Z,1540.00
2022-12-26T08:58:20.869Z,1452.00
2022-12-26T08:59:20.811Z,1520.00
2022-12-26T09:00:21.755Z,1644.00
2022-12-26T09:01:20.858Z,1776.00
2022-12-26T09:02:20.896Z,1932.00
2022-12-26T09:03:20.772Z,2056.00
2022-12-26T09:04:20.710Z,2120.00
2022-12-26T09:05:20.697Z,2152.00
2022-12-26T09:06:20.695Z,2060.00
2022-12-26T09:07:20.681Z,1888.00
2022-12-26T09:08:20.684Z,1644.00
2022-12-26T09:09:41.679Z,1500.00
2022-12-26T09:10:20.642Z,1404.00
2022-12-26T09:11:20.615Z,1464.00
2022-12-26T09:12:20.621Z,1496.00
2022-12-26T09:13:20.632Z,1592.00
2022-12-26T09:14:20.624Z,1656.00
2022-12-26T09:15:20.588Z,1660.00
2022-12-26T09:16:20.706Z,1736.00
2022-12-26T09:17:20.639Z,1868.00
2022-12-26T09:18:20.615Z,2020.00
2022-12-26T09:19:20.577Z,2044.00
2022-12-26T09:20:21.518Z,1848.00
2022-12-26T09:21:20.532Z,1436.00
2022-12-26T09:22:20.510Z,1280.00
2022-12-26T09:23:20.507Z,1432.00
2022-12-26T09:24:20.498Z,1648.00
2022-12-26T09:25:20.480Z,1696.00
2022-12-26T09:26:20.462Z,1784.00
2022-12-26T09:27:20.435Z,1796.00
2022-12-26T09:28:20.418Z,1844.00
2022-12-26T09:29:20.440Z,1900.00
2022-12-26T09:30:20.431Z,1952.00
2022-12-26T09:31:20.471Z,2012.00
2022-12-26T09:32:20.373Z,2100.00
2022-12-26T09:33:20.386Z,2120.00
2022-12-26T09:34:20.365Z,2080.00
2022-12-26T09:35:20.373Z,2052.00
2022-12-26T09:36:20.334Z,2048.00
2022-12-26T09:37:20.347Z,2032.00
2022-12-26T09:38:20.341Z,1932.00
2022-12-26T09:39:20.323Z,2004.00
2022-12-26T09:40:20.326Z,2028.00
2022-12-26T09:41:20.284Z,1964.00
2022-12-26T09:42:20.272Z,1900.00
2022-12-26T09:43:20.267Z,1868.00
2022-12-26T09:44:20.284Z,1892.00
2022-12-26T09:45:20.242Z,1708.00
2022-12-26T09:46:20.325Z,1900.00
2022-12-26T09:47:20.210Z,1964.00
2022-12-26T09:48:20.191Z,2032.00
2022-12-26T09:49:20.197Z,2032.00
2022-12-26T09:50:20.202Z,2048.00
2022-12-26T09:51:20.178Z,2204.00
2022-12-26T09:52:20.149Z,2236.00
2022-12-26T09:53:20.144Z,2204.00
2022-12-26T09:54:20.121Z,2088.00
2022-12-26T09:55:20.115Z,1964.00
2022-12-26T09:57:01.378Z,1988.00
2022-12-26T09:57:21.094Z,2028.00
2022-12-26T09:58:20.078Z,2032.00
2022-12-26T09:59:21.085Z,2108.00
2022-12-26T10:00:20.084Z,2072.00
2022-12-26T10:01:20.162Z,2040.00
2022-12-26T10:02:20.250Z,1932.00
2022-12-26T10:03:20.044Z,1640.00
2022-12-26T10:04:23.607Z,1544.00
2022-12-26T10:05:21.019Z,1572.00
2022-12-26T10:06:20.009Z,1768.00
2022-12-26T10:07:19.993Z,1728.00
2022-12-26T10:08:19.970Z,1888.00
2022-12-26T10:09:19.974Z,2028.00
2022-12-26T10:10:21.039Z,2052.00
2022-12-26T10:11:19.970Z,2036.00
2022-12-26T10:12:19.919Z,2060.00
2022-12-26T10:13:19.925Z,2128.00
2022-12-26T10:14:21.824Z,2132.00
2022-12-26T10:15:19.910Z,2344.00
2022-12-26T10:16:19.950Z,2440.00
2022-12-26T10:17:19.921Z,2608.00
2022-12-26T10:18:19.887Z,2628.00
2022-12-26T10:19:19.877Z,2596.00
2022-12-26T10:20:19.832Z,2668.00
2022-12-26T10:21:19.826Z,2636.00
2022-12-26T10:22:19.846Z,2728.00
2022-12-26T10:23:19.847Z,2644.00
2022-12-26T10:24:19.783Z,2772.00
2022-12-26T10:25:19.792Z,2856.00
2022-12-26T10:26:20.770Z,2784.00
2022-12-26T10:27:19.797Z,2692.00
2022-12-26T10:28:19.752Z,2860.00
2022-12-26T10:29:19.741Z,3028.00
2022-12-26T10:30:20.763Z,3280.00
2022-12-26T10:31:20.791Z,3424.00
2022-12-26T10:32:25.984Z,3508.00
2022-12-26T10:33:20.684Z,3672.00
2022-12-26T10:34:19.693Z,4004.00
2022-12-26T10:35:19.660Z,4056.00
2022-12-26T10:36:19.661Z,3804.00
2022-12-26T10:37:19.672Z,2652.00
2022-12-26T10:38:25.630Z,3364.00
2022-12-26T10:39:20.616Z,3580.00
2022-12-26T10:40:19.682Z,3840.00
2022-12-26T10:41:19.608Z,2260.00
2022-12-26T10:42:19.591Z,2200.00
2022-12-26T10:43:19.584Z,2028.00
2022-12-26T10:44:25.601Z,1792.00
2022-12-26T10:45:22.236Z,1760.00
2022-12-26T10:46:19.565Z,1640.00
2022-12-26T10:47:19.549Z,1308.00
2022-12-26T10:48:19.512Z,1032.00
2022-12-26T10:49:19.512Z,1192.00
2022-12-26T10:50:25.430Z,1188.00
2022-12-26T10:51:20.495Z,1196.00
2022-12-26T10:52:19.492Z,1244.00
2022-12-26T10:53:20.479Z,1108.00
2022-12-26T10:54:19.445Z,1508.00
2022-12-26T10:55:28.895Z,1684.00
2022-12-26T10:56:20.416Z,2264.00
2022-12-26T10:57:20.423Z,2208.00
2022-12-26T10:58:19.421Z,2448.00
2022-12-26T10:59:19.461Z,2400.00
2022-12-26T11:00:19.489Z,2528.00
2022-12-26T11:01:19.513Z,2736.00
2022-12-26T11:02:19.545Z,2836.00
2022-12-26T11:03:19.504Z,2928.00
2022-12-26T11:04:31.313Z,3016.00
2022-12-26T11:05:48.897Z,3068.00
2022-12-26T11:06:20.336Z,3120.00
2022-12-26T11:07:19.328Z,3284.00
2022-12-26T11:08:19.279Z,3096.00
2022-12-26T11:09:19.449Z,3156.00
2022-12-26T11:10:19.273Z,3108.00
2022-12-26T11:11:19.247Z,3156.00
2022-12-26T11:12:19.231Z,3060.00
2022-12-26T11:13:19.260Z,2988.00
2022-12-26T11:14:19.260Z,3008.00
2022-12-26T11:15:19.207Z,2908.00
2022-12-26T11:16:19.253Z,2964.00
2022-12-26T11:17:19.195Z,2896.00
2022-12-26T11:18:19.179Z,2884.00
2022-12-26T11:19:19.170Z,2948.00
2022-12-26T11:20:19.154Z,2868.00
2022-12-26T11:21:19.158Z,2900.00
2022-12-26T11:22:19.152Z,2896.00
2022-12-26T11:23:19.138Z,2992.00
2022-12-26T11:24:19.100Z,2992.00
2022-12-26T11:25:19.099Z,3000.00
2022-12-26T11:26:19.088Z,3044.00
2022-12-26T11:27:19.078Z,2892.00
2022-12-26T11:28:19.086Z,2856.00
2022-12-26T11:29:19.045Z,2832.00
2022-12-26T11:30:19.045Z,2904.00
2022-12-26T11:31:19.073Z,2976.00
2022-12-26T11:32:19.022Z,2936.00
2022-12-26T11:33:19.032Z,3136.00
2022-12-26T11:34:18.984Z,2940.00
2022-12-26T11:35:18.986Z,2832.00
2022-12-26T11:36:18.961Z,2600.00
2022-12-26T11:37:18.949Z,2780.00
2022-12-26T11:38:18.986Z,3204.00
2022-12-26T11:39:18.939Z,3084.00
2022-12-26T11:40:18.927Z,3260.00
2022-12-26T11:41:18.915Z,3020.00
2022-12-26T11:42:18.903Z,3364.00
2022-12-26T11:43:18.929Z,3348.00
2022-12-26T11:44:18.894Z,3884.00
2022-12-26T11:45:18.857Z,4280.00
2022-12-26T11:46:18.975Z,4204.00
2022-12-26T11:47:18.833Z,3904.00
2022-12-26T11:48:18.839Z,4468.00
2022-12-26T11:49:18.852Z,4272.00
2022-12-26T11:50:18.817Z,4676.00
2022-12-26T11:51:18.804Z,4140.00
2022-12-26T11:52:18.825Z,2768.00
2022-12-26T11:53:18.775Z,2156.00
2022-12-26T11:54:18.815Z,2108.00
2022-12-26T11:55:18.759Z,2216.00
2022-12-26T11:56:18.757Z,2284.00
2022-12-26T11:57:18.722Z,2632.00
2022-12-26T11:58:18.734Z,2916.00
2022-12-26T11:59:56.293Z,2096.00
2022-12-26T12:00:18.729Z,2596.00
2022-12-26T12:01:18.748Z,5152.00
2022-12-26T12:02:18.700Z,4620.00
2022-12-26T12:03:18.733Z,4684.00
2022-12-26T12:04:18.648Z,2552.00
2022-12-26T12:05:18.662Z,2256.00
2022-12-26T12:06:18.627Z,2636.00
2022-12-26T12:07:18.626Z,2888.00
2022-12-26T12:08:18.613Z,2564.00
2022-12-26T12:09:18.613Z,2340.00
2022-12-26T12:10:18.615Z,2180.00
2022-12-26T12:11:18.569Z,1980.00
2022-12-26T12:12:18.572Z,2012.00
2022-12-26T12:13:18.545Z,2740.00
2022-12-26T12:14:18.537Z,2184.00
2022-12-26T12:15:18.541Z,2028.00
2022-12-26T12:16:18.550Z,2092.00
2022-12-26T12:17:18.512Z,1948.00
2022-12-26T12:18:18.498Z,1908.00
2022-12-26T12:19:18.482Z,1484.00
2022-12-26T12:20:18.487Z,2420.00
2022-12-26T12:21:18.468Z,1776.00
2022-12-26T12:22:18.473Z,1660.00
2022-12-26T12:23:18.470Z,1488.00
2022-12-26T12:24:18.455Z,1164.00
2022-12-26T12:25:18.423Z,1660.00
2022-12-26T12:26:18.440Z,1828.00
2022-12-26T12:27:18.399Z,1576.00
2022-12-26T12:28:18.393Z,1520.00
2022-12-26T12:29:18.363Z,1468.00
2022-12-26T12:30:18.363Z,1020.00
2022-12-26T12:31:19.430Z,664.00
2022-12-26T12:32:18.339Z,620.00
2022-12-26T12:33:18.331Z,1004.00
2022-12-26T12:34:18.322Z,880.00
2022-12-26T12:35:18.317Z,644.00
2022-12-26T12:36:18.321Z,728.00
2022-12-26T12:37:18.270Z,520.00
2022-12-26T12:38:18.268Z,392.00
2022-12-26T12:39:18.282Z,296.00
2022-12-26T12:40:18.260Z,268.00
2022-12-26T12:41:18.266Z,252.00
2022-12-26T12:42:18.240Z,256.00
2022-12-26T12:43:18.215Z,256.00
2022-12-26T12:44:18.203Z,308.00
2022-12-26T12:45:18.204Z,380.00
2022-12-26T12:46:18.199Z,364.00
2022-12-26T12:47:18.198Z,360.00
2022-12-26T12:48:18.167Z,368.00
2022-12-26T12:49:18.152Z,344.00
2022-12-26T12:50:18.137Z,328.00
2022-12-26T12:51:18.116Z,416.00
2022-12-26T12:52:18.113Z,660.00
2022-12-26T12:53:18.103Z,696.00
2022-12-26T12:54:18.105Z,660.00
2022-12-26T12:55:18.068Z,920.00
2022-12-26T12:56:18.081Z,1196.00
2022-12-26T12:57:18.090Z,1040.00
2022-12-26T12:58:18.057Z,1040.00
2022-12-26T12:59:18.044Z,1656.00
2022-12-26T13:00:18.021Z,2696.00
2022-12-26T13:01:18.182Z,3048.00
2022-12-26T13:02:20.650Z,2036.00
2022-12-26T13:03:18.066Z,2128.00
2022-12-26T13:04:17.971Z,1848.00
2022-12-26T13:05:17.953Z,1816.00
2022-12-26T13:06:17.966Z,1632.00
2022-12-26T13:07:17.942Z,1796.00
2022-12-26T13:08:17.981Z,1780.00
2022-12-26T13:09:17.913Z,1856.00
2022-12-26T13:10:17.914Z,1964.00
2022-12-26T13:11:17.883Z,1916.00
2022-12-26T13:12:17.880Z,1808.00
2022-12-26T13:13:18.887Z,1688.00
2022-12-26T13:14:17.915Z,1548.00
2022-12-26T13:15:17.851Z,1364.00
2022-12-26T13:16:17.887Z,1252.00
2022-12-26T13:17:17.828Z,1260.00
2022-12-26T13:18:17.823Z,1296.00
2022-12-26T13:19:17.817Z,1264.00
2022-12-26T13:20:17.812Z,1192.00
2022-12-26T13:21:17.781Z,1176.00
2022-12-26T13:22:17.760Z,1204.00
2022-12-26T13:23:17.758Z,1224.00
2022-12-26T13:24:17.765Z,1240.00
2022-12-26T13:25:17.723Z,1244.00
2022-12-26T13:26:17.729Z,1244.00
2022-12-26T13:27:18.717Z,1276.00
2022-12-26T13:28:17.722Z,1276.00
2022-12-26T13:29:17.694Z,1160.00
2022-12-26T13:30:17.730Z,1080.00
2022-12-26T13:31:17.706Z,996.00
2022-12-26T13:32:17.652Z,988.00
2022-12-26T13:33:17.634Z,976.00
2022-12-26T13:34:17.660Z,940.00
2022-12-26T13:35:17.632Z,828.00
2022-12-26T13:36:17.616Z,596.00
2022-12-26T13:37:17.588Z,408.00
2022-12-26T13:38:17.593Z,248.00
2022-12-26T13:39:17.608Z,188.00
2022-12-26T13:40:17.755Z,180.00
2022-12-26T13:41:18.087Z,152.00
2022-12-26T13:42:17.548Z,132.00
2022-12-26T13:43:17.603Z,148.00
2022-12-26T13:44:17.554Z,152.00
2022-12-26T13:45:17.495Z,152.00
2022-12-26T13:46:17.550Z,180.00
2022-12-26T13:47:17.471Z,204.00
2022-12-26T13:48:17.483Z,208.00
2022-12-26T13:49:17.521Z,216.00
2022-12-26T13:50:17.453Z,248.00
2022-12-26T13:51:17.439Z,336.00
2022-12-26T13:52:17.418Z,412.00
2022-12-26T13:53:17.415Z,416.00
2022-12-26T13:54:17.401Z,380.00
2022-12-26T13:55:17.434Z,332.00
2022-12-26T13:56:17.422Z,324.00
2022-12-26T13:57:17.477Z,328.00
2022-12-26T13:58:17.367Z,312.00
2022-12-26T13:59:17.342Z,312.00
2022-12-26T14:00:17.358Z,412.00
2022-12-26T14:01:17.406Z,544.00
2022-12-26T14:02:19.842Z,592.00
2022-12-26T14:03:19.729Z,588.00
2022-12-26T14:04:17.379Z,592.00
2022-12-26T14:05:17.335Z,564.00
2022-12-26T14:06:17.272Z,488.00
2022-12-26T14:07:17.249Z,412.00
2022-12-26T14:08:17.249Z,348.00
2022-12-26T14:09:17.248Z,328.00
2022-12-26T14:10:17.252Z,304.00
2022-12-26T14:11:17.236Z,216.00
2022-12-26T14:12:17.204Z,156.00
2022-12-26T14:13:17.177Z,128.00
2022-12-26T14:14:17.180Z,188.00
2022-12-26T14:15:17.168Z,316.00
2022-12-26T14:16:17.192Z,296.00
2022-12-26T14:17:17.143Z,224.00
2022-12-26T14:18:17.144Z,176.00
2022-12-26T14:19:17.221Z,252.00
2022-12-26T14:20:17.193Z,344.00
2022-12-26T14:21:17.089Z,372.00
2022-12-26T14:22:17.110Z,256.00
2022-12-26T14:23:17.081Z,172.00
2022-12-26T14:24:17.066Z,80.00
2022-12-26T14:25:17.065Z,52.00
2022-12-26T14:26:17.032Z,40.00
2022-12-26T14:27:17.110Z,28.00
2022-12-26T14:28:17.077Z,28.00
2022-12-26T14:29:17.077Z,36.00
2022-12-26T14:30:16.991Z,36.00
2022-12-26T14:31:17.094Z,60.00
2022-12-26T14:32:16.995Z,116.00
2022-12-26T14:33:16.951Z,144.00
2022-12-26T14:34:16.963Z,140.00
2022-12-26T14:35:17.936Z,96.00
2022-12-26T14:36:16.930Z,92.00
2022-12-26T14:37:17.932Z,104.00
2022-12-26T14:38:17.012Z,84.00
2022-12-26T14:39:16.880Z,80.00
2022-12-26T14:40:16.925Z,84.00
2022-12-26T14:41:16.898Z,116.00
2022-12-26T14:42:16.928Z,124.00
2022-12-26T14:43:16.866Z,164.00
2022-12-26T14:44:16.837Z,152.00
2022-12-26T14:45:16.812Z,104.00
2022-12-26T14:46:16.906Z,96.00
2022-12-26T14:47:16.789Z,120.00
2022-12-26T14:48:16.803Z,136.00
2022-12-26T14:49:16.883Z,116.00
2022-12-26T14:50:16.781Z,108.00
2022-12-26T14:51:16.767Z,132.00
2022-12-26T14:52:16.737Z,192.00
2022-12-26T14:53:16.750Z,220.00
2022-12-26T14:54:16.717Z,216.00
2022-12-26T14:55:17.712Z,200.00
2022-12-26T14:56:16.703Z,172.00
2022-12-26T14:57:16.703Z,164.00
2022-12-26T14:58:16.707Z,148.00
2022-12-26T14:59:17.662Z,156.00
2022-12-26T15:00:16.657Z,180.00
2022-12-26T15:01:16.794Z,188.00
2022-12-26T15:02:16.795Z,172.00
2022-12-26T15:03:16.676Z,184.00
2022-12-26T15:04:16.633Z,208.00
2022-12-26T15:05:16.598Z,220.00
2022-12-26T15:06:16.598Z,216.00
2022-12-26T15:07:20.609Z,204.00
2022-12-26T15:08:16.557Z,156.00
2022-12-26T15:09:16.572Z,148.00
2022-12-26T15:10:16.544Z,124.00
2022-12-26T15:11:16.532Z,112.00
2022-12-26T15:12:16.516Z,104.00
2022-12-26T15:13:16.515Z,92.00
2022-12-26T15:14:16.515Z,92.00
2022-12-26T15:15:16.480Z,88.00
2022-12-26T15:16:16.545Z,84.00
2022-12-26T15:17:17.460Z,96.00
2022-12-26T15:18:16.454Z,96.00
2022-12-26T15:19:16.446Z,84.00
2022-12-26T15:20:16.445Z,84.00
2022-12-26T15:21:16.409Z,84.00
2022-12-26T15:22:16.438Z,76.00
2022-12-26T15:23:16.394Z,68.00
2022-12-26T15:24:16.405Z,56.00
2022-12-26T15:25:19.183Z,60.00
2022-12-26T15:26:16.356Z,44.00
2022-12-26T15:27:16.349Z,32.00
2022-12-26T15:28:16.329Z,28.00
2022-12-26T15:29:16.355Z,20.00
2022-12-26T15:30:16.320Z,16.00
2022-12-26T15:31:16.334Z,20.00
2022-12-26T15:32:16.285Z,20.00
2022-12-26T15:33:17.286Z,12.00
2022-12-26T15:34:16.272Z,8.00
2022-12-26T15:35:16.262Z,12.00
2022-12-26T15:36:16.251Z,16.00
2022-12-26T15:37:22.120Z,12.00
2022-12-26T15:38:17.218Z,8.00
2022-12-26T15:39:16.200Z,8.00
2022-12-26T15:40:16.272Z,8.00
2022-12-26T15:41:16.201Z,4.00
2022-12-26T15:42:16.184Z,8.00
2022-12-26T15:43:16.167Z,4.00
2022-12-26T15:44:16.158Z,4.00
2022-12-26T15:45:16.169Z,8.00
2022-12-26T15:46:16.188Z,4.00
2022-12-26T15:47:17.069Z,4.00
2022-12-26T15:48:16.094Z,4.00
2022-12-26T15:49:16.094Z,4.00
2022-12-26T15:50:16.097Z,0.00
2022-12-26T15:51:16.073Z,4.00
2022-12-26T15:52:16.067Z,4.00
2022-12-26T15:53:16.067Z,4.00
2022-12-26T15:54:16.031Z,4.00
2022-12-26T15:55:16.038Z,4.00
2022-12-26T15:56:16.021Z,4.00
2022-12-26T15:57:16.046Z,0.00
2022-12-26T15:58:15.984Z,0.00
2022-12-26T15:59:15.999Z,0.00
2022-12-26T16:00:15.994Z,0.00
2022-12-26T16:01:16.062Z,0.00
2022-12-26T16:02:16.163Z,0.00
2022-12-26T16:03:16.007Z,0.00
2022-12-26T16:04:15.932Z,0.00
2022-12-26T16:05:15.938Z,0.00
2022-12-26T16:06:15.905Z,0.00
2022-12-26T16:07:15.889Z,0.00
2022-12-26T16:08:15.911Z,0.00
2022-12-26T16:09:15.921Z,0.00
2022-12-26T16:10:15.877Z,0.00
2022-12-26T16:11:15.852Z,0.00
2022-12-26T16:12:15.836Z,0.00
2022-12-26T16:13:15.815Z,0.00
2022-12-26T16:14:15.816Z,0.00
2022-12-26T16:15:15.827Z,0.00
2022-12-26T16:16:15.886Z,0.00
2022-12-26T16:17:15.770Z,0.00
2022-12-26T16:18:15.771Z,0.00
2022-12-26T16:19:15.761Z,0.00
2022-12-26T16:20:18.788Z,0.00
2022-12-26T16:21:15.730Z,0.00
2022-12-26T16:22:15.709Z,0.00
2022-12-26T16:23:15.715Z,0.00
2022-12-26T16:24:15.701Z,0.00
2022-12-26T16:25:31.870Z,0.00
2022-12-26T16:26:15.692Z,0.00
2022-12-26T16:27:15.656Z,0.00
2022-12-26T16:28:15.651Z,0.00
2022-12-26T16:29:15.649Z,0.00
2022-12-26T16:30:15.623Z,0.00
2022-12-26T16:31:15.677Z,0.00
2022-12-26T16:32:15.597Z,0.00
2022-12-26T16:33:15.599Z,0.00
2022-12-26T16:34:15.574Z,0.00
2022-12-26T16:35:15.587Z,0.00
2022-12-26T16:36:15.620Z,0.00
2022-12-26T16:37:15.556Z,0.00
2022-12-26T16:38:15.530Z,0.00
2022-12-26T16:39:15.529Z,0.00
2022-12-26T16:40:15.503Z,0.00
2022-12-26T16:41:15.665Z,0.00
2022-12-26T16:42:15.481Z,0.00
2022-12-26T16:43:15.487Z,0.00
2022-12-26T16:44:15.473Z,0.00
2022-12-26T16:45:15.474Z,0.00
2022-12-26T16:46:15.611Z,0.00
2022-12-26T16:47:15.483Z,0.00
2022-12-26T16:48:15.426Z,0.00
2022-12-26T16:49:15.419Z,0.00
2022-12-26T16:50:15.404Z,0.00
2022-12-26T16:51:42.962Z,0.00
2022-12-26T16:52:15.368Z,0.00
2022-12-26T16:53:15.375Z,0.00
2022-12-26T16:54:15.366Z,0.00
2022-12-26T16:55:15.355Z,0.00
2022-12-26T16:56:15.340Z,0.00
2022-12-26T16:57:15.349Z,0.00
2022-12-26T16:58:15.306Z,0.00
2022-12-26T16:59:17.629Z,0.00
2022-12-26T17:00:15.277Z,0.00
2022-12-26T17:01:15.311Z,0.00
2022-12-26T17:02:16.347Z,0.00
2022-12-26T17:03:15.288Z,0.00
2022-12-26T17:04:15.246Z,0.00
2022-12-26T17:05:15.225Z,0.00
2022-12-26T17:06:15.233Z,0.00
2022-12-26T17:07:15.205Z,0.00
2022-12-26T17:08:16.189Z,0.00
2022-12-26T17:09:17.194Z,0.00
2022-12-26T17:10:15.171Z,0.00
2022-12-26T17:11:15.174Z,0.00
2022-12-26T17:12:15.140Z,0.00
2022-12-26T17:13:15.171Z,0.00
2022-12-26T17:14:15.118Z,0.00
2022-12-26T17:15:15.124Z,0.00
2022-12-26T17:16:15.161Z,0.00
2022-12-26T17:17:15.108Z,0.00
2022-12-26T17:18:15.075Z,0.00
2022-12-26T17:19:15.346Z,0.00
